sensor_id;sensor_type;location;lat;lon;timestamp;P1;durP1;ratioP1;P2;durP2;ratioP2
48199;SDS011;33990;44.602;10.976;2022-09-12T00:01:18;4.63;;;3.00;;
48199;SDS011;33990;44.602;10.976;2022-09-12T00:03:49;3.75;;;3.00;;
48199;SDS011;33990;44.602;10.976;2022-09-12T00:06:20;4.47;;;3.28;;
48199;SDS011;33990;44.602;10.976;2022-09-12T00:08:49;4.00;;;3.10;;
48199;SDS011;33990;44.602;10.976;2022-09-12T00:11:17;3.92;;;2.70;;
48199;SDS011;33990;44.602;10.976;2022-09-12T00:13:44;4.18;;;2.95;;
48199;SDS011;33990;44.602;10.976;2022-09-12T00:16:20;6.65;;;3.13;;
48199;SDS011;33990;44.602;10.976;2022-09-12T00:18:49;4.80;;;2.95;;
48199;SDS011;33990;44.602;10.976;2022-09-12T00:21:18;4.45;;;3.08;;
48199;SDS011;33990;44.602;10.976;2022-09-12T00:23:47;3.85;;;2.90;;
48199;SDS011;33990;44.602;10.976;2022-09-12T00:26:16;3.92;;;3.08;;
48199;SDS011;33990;44.602;10.976;2022-09-12T00:28:44;3.92;;;2.78;;
48199;SDS011;33990;44.602;10.976;2022-09-12T00:31:13;3.45;;;2.80;;
48199;SDS011;33990;44.602;10.976;2022-09-12T00:33:45;4.68;;;3.08;;
48199;SDS011;33990;44.602;10.976;2022-09-12T00:36:14;4.70;;;3.20;;
48199;SDS011;33990;44.602;10.976;2022-09-12T00:38:44;4.20;;;3.80;;
48199;SDS011;33990;44.602;10.976;2022-09-12T00:41:23;3.42;;;2.80;;
48199;SDS011;33990;44.602;10.976;2022-09-12T00:43:53;4.97;;;3.15;;
48199;SDS011;33990;44.602;10.976;2022-09-12T00:49:09;5.07;;;3.05;;
48199;SDS011;33990;44.602;10.976;2022-09-12T00:51:41;6.68;;;3.15;;
48199;SDS011;33990;44.602;10.976;2022-09-12T00:54:16;3.65;;;2.95;;
48199;SDS011;33990;44.602;10.976;2022-09-12T00:56:53;4.25;;;3.25;;
48199;SDS011;33990;44.602;10.976;2022-09-12T00:59:26;4.97;;;3.70;;
48199;SDS011;33990;44.602;10.976;2022-09-12T01:01:58;3.38;;;2.85;;
48199;SDS011;33990;44.602;10.976;2022-09-12T01:04:25;4.68;;;3.50;;
48199;SDS011;33990;44.602;10.976;2022-09-12T01:06:54;4.32;;;3.20;;
48199;SDS011;33990;44.602;10.976;2022-09-12T01:09:25;4.80;;;3.15;;
48199;SDS011;33990;44.602;10.976;2022-09-12T01:11:53;6.28;;;3.20;;
48199;SDS011;33990;44.602;10.976;2022-09-12T01:14:21;3.65;;;3.13;;
48199;SDS011;33990;44.602;10.976;2022-09-12T01:16:48;3.92;;;3.42;;
48199;SDS011;33990;44.602;10.976;2022-09-12T01:22:35;6.57;;;3.25;;
48199;SDS011;33990;44.602;10.976;2022-09-12T01:30:52;5.45;;;2.95;;
48199;SDS011;33990;44.602;10.976;2022-09-12T01:33:33;5.05;;;3.20;;
48199;SDS011;33990;44.602;10.976;2022-09-12T01:38:55;4.65;;;3.30;;
48199;SDS011;33990;44.602;10.976;2022-09-12T01:47:05;5.75;;;2.80;;
48199;SDS011;33990;44.602;10.976;2022-09-12T01:49:46;5.85;;;3.50;;
48199;SDS011;33990;44.602;10.976;2022-09-12T01:52:24;4.88;;;3.40;;
48199;SDS011;33990;44.602;10.976;2022-09-12T01:55:04;3.90;;;3.20;;
48199;SDS011;33990;44.602;10.976;2022-09-12T01:57:47;5.13;;;2.92;;
48199;SDS011;33990;44.602;10.976;2022-09-12T02:02:48;3.97;;;3.22;;
48199;SDS011;33990;44.602;10.976;2022-09-12T02:05:35;5.47;;;3.22;;
48199;SDS011;33990;44.602;10.976;2022-09-12T02:10:50;5.15;;;3.30;;
48199;SDS011;33990;44.602;10.976;2022-09-12T02:13:22;5.30;;;3.30;;
48199;SDS011;33990;44.602;10.976;2022-09-12T02:15:56;4.35;;;3.08;;
48199;SDS011;33990;44.602;10.976;2022-09-12T02:18:31;6.95;;;3.50;;
48199;SDS011;33990;44.602;10.976;2022-09-12T02:21:00;3.97;;;3.33;;
48199;SDS011;33990;44.602;10.976;2022-09-12T02:23:32;4.43;;;3.20;;
48199;SDS011;33990;44.602;10.976;2022-09-12T02:26:04;4.47;;;2.92;;
48199;SDS011;33990;44.602;10.976;2022-09-12T02:28:40;3.55;;;2.92;;
48199;SDS011;33990;44.602;10.976;2022-09-12T02:31:19;3.90;;;2.90;;
48199;SDS011;33990;44.602;10.976;2022-09-12T02:33:55;4.75;;;3.10;;
48199;SDS011;33990;44.602;10.976;2022-09-12T02:38:58;4.10;;;3.13;;
48199;SDS011;33990;44.602;10.976;2022-09-12T02:41:26;6.15;;;3.20;;
48199;SDS011;33990;44.602;10.976;2022-09-12T02:43:54;5.28;;;3.05;;
48199;SDS011;33990;44.602;10.976;2022-09-12T02:46:33;5.22;;;3.10;;
48199;SDS011;33990;44.602;10.976;2022-09-12T02:51:35;3.50;;;3.10;;
48199;SDS011;33990;44.602;10.976;2022-09-12T02:54:03;4.00;;;3.03;;
48199;SDS011;33990;44.602;10.976;2022-09-12T02:56:33;3.70;;;3.05;;
48199;SDS011;33990;44.602;10.976;2022-09-12T02:59:03;3.42;;;3.13;;
48199;SDS011;33990;44.602;10.976;2022-09-12T03:09:53;3.80;;;2.90;;
48199;SDS011;33990;44.602;10.976;2022-09-12T03:12:43;4.13;;;3.15;;
48199;SDS011;33990;44.602;10.976;2022-09-12T03:29:18;3.20;;;2.80;;
48199;SDS011;33990;44.602;10.976;2022-09-12T03:31:50;4.55;;;3.17;;
48199;SDS011;33990;44.602;10.976;2022-09-12T03:34:20;3.90;;;2.97;;
48199;SDS011;33990;44.602;10.976;2022-09-12T03:36:49;4.15;;;3.28;;
48199;SDS011;33990;44.602;10.976;2022-09-12T03:39:16;4.53;;;3.28;;
48199;SDS011;33990;44.602;10.976;2022-09-12T03:41:44;3.65;;;2.85;;
48199;SDS011;33990;44.602;10.976;2022-09-12T03:44:11;5.82;;;3.33;;
48199;SDS011;33990;44.602;10.976;2022-09-12T03:46:38;3.95;;;3.38;;
48199;SDS011;33990;44.602;10.976;2022-09-12T03:49:05;4.40;;;3.15;;
48199;SDS011;33990;44.602;10.976;2022-09-12T03:51:33;4.32;;;3.05;;
48199;SDS011;33990;44.602;10.976;2022-09-12T03:54:00;4.05;;;3.00;;
48199;SDS011;33990;44.602;10.976;2022-09-12T03:56:27;3.58;;;3.22;;
48199;SDS011;33990;44.602;10.976;2022-09-12T03:58:55;3.38;;;3.08;;
48199;SDS011;33990;44.602;10.976;2022-09-12T04:01:22;4.25;;;3.40;;
48199;SDS011;33990;44.602;10.976;2022-09-12T04:03:50;4.35;;;3.25;;
48199;SDS011;33990;44.602;10.976;2022-09-12T04:06:19;5.38;;;3.40;;
48199;SDS011;33990;44.602;10.976;2022-09-12T04:08:48;4.38;;;3.80;;
48199;SDS011;33990;44.602;10.976;2022-09-12T04:11:17;4.32;;;3.22;;
48199;SDS011;33990;44.602;10.976;2022-09-12T04:13:46;4.13;;;3.72;;
48199;SDS011;33990;44.602;10.976;2022-09-12T04:16:14;5.03;;;3.47;;
48199;SDS011;33990;44.602;10.976;2022-09-12T04:18:43;5.20;;;3.72;;
48199;SDS011;33990;44.602;10.976;2022-09-12T04:21:16;4.57;;;3.55;;
48199;SDS011;33990;44.602;10.976;2022-09-12T04:23:45;4.05;;;3.65;;
48199;SDS011;33990;44.602;10.976;2022-09-12T04:26:13;4.53;;;3.25;;
48199;SDS011;33990;44.602;10.976;2022-09-12T04:28:41;5.00;;;3.65;;
48199;SDS011;33990;44.602;10.976;2022-09-12T04:31:12;5.20;;;3.70;;
48199;SDS011;33990;44.602;10.976;2022-09-12T04:33:43;3.83;;;3.00;;
48199;SDS011;33990;44.602;10.976;2022-09-12T04:36:15;4.25;;;3.80;;
48199;SDS011;33990;44.602;10.976;2022-09-12T04:38:43;4.03;;;3.47;;
48199;SDS011;33990;44.602;10.976;2022-09-12T04:41:13;5.25;;;3.70;;
48199;SDS011;33990;44.602;10.976;2022-09-12T04:43:42;4.65;;;3.78;;
48199;SDS011;33990;44.602;10.976;2022-09-12T04:46:13;5.05;;;3.65;;
48199;SDS011;33990;44.602;10.976;2022-09-12T04:48:42;5.55;;;3.78;;
48199;SDS011;33990;44.602;10.976;2022-09-12T04:51:14;5.05;;;3.83;;
48199;SDS011;33990;44.602;10.976;2022-09-12T04:53:46;4.32;;;3.70;;
48199;SDS011;33990;44.602;10.976;2022-09-12T04:56:15;5.05;;;3.88;;
48199;SDS011;33990;44.602;10.976;2022-09-12T04:58:43;4.32;;;3.60;;
48199;SDS011;33990;44.602;10.976;2022-09-12T05:01:13;3.92;;;3.35;;
48199;SDS011;33990;44.602;10.976;2022-09-12T05:03:42;5.53;;;3.75;;
48199;SDS011;33990;44.602;10.976;2022-09-12T05:06:12;6.82;;;4.03;;
48199;SDS011;33990;44.602;10.976;2022-09-12T05:08:41;6.30;;;4.43;;
48199;SDS011;33990;44.602;10.976;2022-09-12T05:11:09;3.65;;;3.20;;
48199;SDS011;33990;44.602;10.976;2022-09-12T05:13:39;5.93;;;3.67;;
48199;SDS011;33990;44.602;10.976;2022-09-12T05:16:08;5.47;;;2.90;;
48199;SDS011;33990;44.602;10.976;2022-09-12T05:18:38;4.72;;;3.58;;
48199;SDS011;33990;44.602;10.976;2022-09-12T05:21:06;6.50;;;4.22;;
48199;SDS011;33990;44.602;10.976;2022-09-12T05:23:35;4.35;;;3.67;;
48199;SDS011;33990;44.602;10.976;2022-09-12T05:26:03;3.63;;;3.10;;
48199;SDS011;33990;44.602;10.976;2022-09-12T05:28:36;4.82;;;4.15;;
48199;SDS011;33990;44.602;10.976;2022-09-12T05:31:05;5.05;;;3.70;;
48199;SDS011;33990;44.602;10.976;2022-09-12T05:33:41;4.22;;;3.63;;
48199;SDS011;33990;44.602;10.976;2022-09-12T05:36:11;4.28;;;3.45;;
48199;SDS011;33990;44.602;10.976;2022-09-12T05:38:41;6.28;;;4.50;;
48199;SDS011;33990;44.602;10.976;2022-09-12T05:41:09;5.93;;;4.85;;
48199;SDS011;33990;44.602;10.976;2022-09-12T05:43:45;6.78;;;5.80;;
48199;SDS011;33990;44.602;10.976;2022-09-12T05:46:16;6.53;;;5.82;;
48199;SDS011;33990;44.602;10.976;2022-09-12T05:48:46;6.30;;;5.72;;
48199;SDS011;33990;44.602;10.976;2022-09-12T05:51:22;6.57;;;4.75;;
48199;SDS011;33990;44.602;10.976;2022-09-12T05:53:53;6.22;;;5.63;;
48199;SDS011;33990;44.602;10.976;2022-09-12T05:56:23;6.57;;;5.20;;
48199;SDS011;33990;44.602;10.976;2022-09-12T05:58:55;9.23;;;5.63;;
48199;SDS011;33990;44.602;10.976;2022-09-12T06:03:56;10.55;;;5.60;;
48199;SDS011;33990;44.602;10.976;2022-09-12T06:06:27;5.03;;;4.25;;
48199;SDS011;33990;44.602;10.976;2022-09-12T06:08:56;6.65;;;4.70;;
48199;SDS011;33990;44.602;10.976;2022-09-12T06:11:26;7.55;;;4.78;;
48199;SDS011;33990;44.602;10.976;2022-09-12T06:13:56;7.03;;;4.55;;
48199;SDS011;33990;44.602;10.976;2022-09-12T06:16:25;7.30;;;5.43;;
48199;SDS011;33990;44.602;10.976;2022-09-12T06:18:58;10.32;;;5.30;;
48199;SDS011;33990;44.602;10.976;2022-09-12T06:21:26;6.28;;;4.70;;
48199;SDS011;33990;44.602;10.976;2022-09-12T06:23:56;5.63;;;4.40;;
48199;SDS011;33990;44.602;10.976;2022-09-12T06:26:27;7.13;;;4.00;;
48199;SDS011;33990;44.602;10.976;2022-09-12T06:28:56;5.05;;;3.40;;
48199;SDS011;33990;44.602;10.976;2022-09-12T06:31:26;7.90;;;3.97;;
48199;SDS011;33990;44.602;10.976;2022-09-12T06:34:00;8.10;;;3.88;;
48199;SDS011;33990;44.602;10.976;2022-09-12T06:36:29;4.85;;;3.70;;
48199;SDS011;33990;44.602;10.976;2022-09-12T06:39:03;7.05;;;3.20;;
48199;SDS011;33990;44.602;10.976;2022-09-12T06:41:33;5.70;;;3.45;;
48199;SDS011;33990;44.602;10.976;2022-09-12T06:44:01;8.02;;;4.28;;
48199;SDS011;33990;44.602;10.976;2022-09-12T06:46:28;6.35;;;4.60;;
48199;SDS011;33990;44.602;10.976;2022-09-12T06:48:57;7.85;;;5.45;;
48199;SDS011;33990;44.602;10.976;2022-09-12T06:51:26;7.45;;;5.88;;
48199;SDS011;33990;44.602;10.976;2022-09-12T06:53:55;7.68;;;4.60;;
48199;SDS011;33990;44.602;10.976;2022-09-12T06:56:24;6.45;;;4.55;;
48199;SDS011;33990;44.602;10.976;2022-09-12T06:58:54;9.57;;;6.00;;
48199;SDS011;33990;44.602;10.976;2022-09-12T07:01:24;9.02;;;6.82;;
48199;SDS011;33990;44.602;10.976;2022-09-12T07:03:53;7.70;;;6.80;;
48199;SDS011;33990;44.602;10.976;2022-09-12T07:06:23;10.90;;;7.53;;
48199;SDS011;33990;44.602;10.976;2022-09-12T07:08:59;13.73;;;7.43;;
48199;SDS011;33990;44.602;10.976;2022-09-12T07:11:30;9.15;;;6.47;;
48199;SDS011;33990;44.602;10.976;2022-09-12T07:14:00;8.50;;;7.38;;
48199;SDS011;33990;44.602;10.976;2022-09-12T07:16:28;8.80;;;6.82;;
48199;SDS011;33990;44.602;10.976;2022-09-12T07:18:57;9.38;;;7.40;;
48199;SDS011;33990;44.602;10.976;2022-09-12T07:21:26;10.70;;;8.02;;
48199;SDS011;33990;44.602;10.976;2022-09-12T07:23:54;8.98;;;7.93;;
48199;SDS011;33990;44.602;10.976;2022-09-12T07:26:26;9.63;;;7.50;;
48199;SDS011;33990;44.602;10.976;2022-09-12T07:28:55;8.15;;;6.60;;
48199;SDS011;33990;44.602;10.976;2022-09-12T07:31:44;10.45;;;8.82;;
48199;SDS011;33990;44.602;10.976;2022-09-12T07:34:11;9.50;;;8.18;;
48199;SDS011;33990;44.602;10.976;2022-09-12T07:36:39;12.68;;;9.98;;
48199;SDS011;33990;44.602;10.976;2022-09-12T07:39:07;11.27;;;9.85;;
48199;SDS011;33990;44.602;10.976;2022-09-12T07:41:34;14.02;;;10.48;;
48199;SDS011;33990;44.602;10.976;2022-09-12T07:44:01;14.07;;;9.32;;
48199;SDS011;33990;44.602;10.976;2022-09-12T07:46:29;10.25;;;8.00;;
48199;SDS011;33990;44.602;10.976;2022-09-12T07:48:58;10.80;;;6.30;;
48199;SDS011;33990;44.602;10.976;2022-09-12T07:51:27;10.45;;;7.50;;
48199;SDS011;33990;44.602;10.976;2022-09-12T07:53:56;9.82;;;8.25;;
48199;SDS011;33990;44.602;10.976;2022-09-12T07:56:24;9.68;;;7.40;;
48199;SDS011;33990;44.602;10.976;2022-09-12T07:58:57;9.38;;;7.40;;
48199;SDS011;33990;44.602;10.976;2022-09-12T08:01:25;9.18;;;7.57;;
48199;SDS011;33990;44.602;10.976;2022-09-12T08:03:55;7.55;;;6.05;;
48199;SDS011;33990;44.602;10.976;2022-09-12T08:06:24;7.22;;;4.57;;
48199;SDS011;33990;44.602;10.976;2022-09-12T08:08:53;8.77;;;7.10;;
48199;SDS011;33990;44.602;10.976;2022-09-12T08:11:22;9.15;;;5.07;;
48199;SDS011;33990;44.602;10.976;2022-09-12T08:13:52;5.13;;;4.35;;
48199;SDS011;33990;44.602;10.976;2022-09-12T08:16:23;5.50;;;4.07;;
48199;SDS011;33990;44.602;10.976;2022-09-12T08:18:52;6.00;;;3.95;;
48199;SDS011;33990;44.602;10.976;2022-09-12T08:21:27;7.05;;;4.47;;
48199;SDS011;33990;44.602;10.976;2022-09-12T08:23:57;6.47;;;4.10;;
48199;SDS011;33990;44.602;10.976;2022-09-12T08:26:32;5.68;;;3.67;;
48199;SDS011;33990;44.602;10.976;2022-09-12T08:29:00;6.80;;;4.18;;
48199;SDS011;33990;44.602;10.976;2022-09-12T08:31:28;5.95;;;3.70;;
48199;SDS011;33990;44.602;10.976;2022-09-12T08:33:57;5.13;;;3.67;;
48199;SDS011;33990;44.602;10.976;2022-09-12T08:36:26;5.40;;;3.60;;
48199;SDS011;33990;44.602;10.976;2022-09-12T08:38:56;6.63;;;3.80;;
48199;SDS011;33990;44.602;10.976;2022-09-12T08:47:06;5.82;;;3.72;;
48199;SDS011;33990;44.602;10.976;2022-09-12T08:52:55;8.38;;;4.28;;
48199;SDS011;33990;44.602;10.976;2022-09-12T08:57:57;7.05;;;4.00;;
48199;SDS011;33990;44.602;10.976;2022-09-12T09:00:29;9.02;;;4.07;;
48199;SDS011;33990;44.602;10.976;2022-09-12T09:03:07;5.80;;;3.30;;
48199;SDS011;33990;44.602;10.976;2022-09-12T09:06:02;6.00;;;3.55;;
48199;SDS011;33990;44.602;10.976;2022-09-12T09:11:15;4.53;;;2.95;;
48199;SDS011;33990;44.602;10.976;2022-09-12T09:16:45;5.63;;;3.63;;
48199;SDS011;33990;44.602;10.976;2022-09-12T09:19:17;5.35;;;3.20;;
48199;SDS011;33990;44.602;10.976;2022-09-12T09:21:50;5.47;;;2.83;;
48199;SDS011;33990;44.602;10.976;2022-09-12T09:24:33;5.40;;;3.15;;
48199;SDS011;33990;44.602;10.976;2022-09-12T09:30:13;5.70;;;3.55;;
48199;SDS011;33990;44.602;10.976;2022-09-12T09:32:44;6.18;;;3.33;;
48199;SDS011;33990;44.602;10.976;2022-09-12T09:35:18;5.22;;;3.15;;
48199;SDS011;33990;44.602;10.976;2022-09-12T09:37:57;6.00;;;4.03;;
48199;SDS011;33990;44.602;10.976;2022-09-12T09:43:20;5.45;;;2.83;;
48199;SDS011;33990;44.602;10.976;2022-09-12T09:45:50;7.40;;;3.25;;
48199;SDS011;33990;44.602;10.976;2022-09-12T09:48:22;6.05;;;2.72;;
48199;SDS011;33990;44.602;10.976;2022-09-12T09:50:55;4.90;;;2.92;;
48199;SDS011;33990;44.602;10.976;2022-09-12T09:53:28;5.35;;;3.30;;
48199;SDS011;33990;44.602;10.976;2022-09-12T09:56:02;6.28;;;2.80;;
48199;SDS011;33990;44.602;10.976;2022-09-12T09:58:35;5.05;;;3.20;;
48199;SDS011;33990;44.602;10.976;2022-09-12T10:01:03;4.20;;;2.85;;
48199;SDS011;33990;44.602;10.976;2022-09-12T10:03:38;2.42;;;2.10;;
48199;SDS011;33990;44.602;10.976;2022-09-12T10:08:46;4.30;;;2.10;;
48199;SDS011;33990;44.602;10.976;2022-09-12T10:11:19;4.88;;;3.20;;
48199;SDS011;33990;44.602;10.976;2022-09-12T10:16:24;3.83;;;2.60;;
48199;SDS011;33990;44.602;10.976;2022-09-12T10:18:52;3.78;;;2.28;;
48199;SDS011;33990;44.602;10.976;2022-09-12T10:21:22;3.33;;;2.10;;
48199;SDS011;33990;44.602;10.976;2022-09-12T10:24:19;4.97;;;2.50;;
48199;SDS011;33990;44.602;10.976;2022-09-12T10:26:57;5.50;;;2.50;;
48199;SDS011;33990;44.602;10.976;2022-09-12T10:29:38;4.65;;;2.60;;
48199;SDS011;33990;44.602;10.976;2022-09-12T10:32:09;3.58;;;2.50;;
48199;SDS011;33990;44.602;10.976;2022-09-12T10:34:42;3.42;;;2.08;;
48199;SDS011;33990;44.602;10.976;2022-09-12T10:40:03;3.60;;;2.22;;
48199;SDS011;33990;44.602;10.976;2022-09-12T10:47:48;6.00;;;2.67;;
48199;SDS011;33990;44.602;10.976;2022-09-12T10:50:26;3.50;;;2.50;;
48199;SDS011;33990;44.602;10.976;2022-09-12T10:55:40;2.42;;;1.85;;
48199;SDS011;33990;44.602;10.976;2022-09-12T10:58:35;4.13;;;2.40;;
48199;SDS011;33990;44.602;10.976;2022-09-12T11:12:41;4.25;;;1.88;;
48199;SDS011;33990;44.602;10.976;2022-09-12T11:35:32;4.72;;;2.50;;
48199;SDS011;33990;44.602;10.976;2022-09-12T11:41:14;3.72;;;2.63;;
48199;SDS011;33990;44.602;10.976;2022-09-12T11:43:51;3.00;;;2.38;;
48199;SDS011;33990;44.602;10.976;2022-09-12T11:46:35;4.45;;;2.40;;
48199;SDS011;33990;44.602;10.976;2022-09-12T11:54:20;2.97;;;2.40;;
48199;SDS011;33990;44.602;10.976;2022-09-12T12:01:52;3.80;;;2.35;;
48199;SDS011;33990;44.602;10.976;2022-09-12T12:04:29;5.10;;;2.33;;
48199;SDS011;33990;44.602;10.976;2022-09-12T12:07:04;7.75;;;3.10;;
48199;SDS011;33990;44.602;10.976;2022-09-12T12:09:33;4.20;;;2.28;;
48199;SDS011;33990;44.602;10.976;2022-09-12T12:12:03;3.25;;;2.05;;
48199;SDS011;33990;44.602;10.976;2022-09-12T12:14:41;2.80;;;2.30;;
48199;SDS011;33990;44.602;10.976;2022-09-12T12:17:15;3.15;;;2.35;;
48199;SDS011;33990;44.602;10.976;2022-09-12T12:19:45;2.58;;;1.83;;
48199;SDS011;33990;44.602;10.976;2022-09-12T12:22:25;4.25;;;2.15;;
48199;SDS011;33990;44.602;10.976;2022-09-12T12:24:53;3.28;;;2.35;;
48199;SDS011;33990;44.602;10.976;2022-09-12T12:46:15;7.53;;;2.42;;
48199;SDS011;33990;44.602;10.976;2022-09-12T12:48:55;6.03;;;2.53;;
48199;SDS011;33990;44.602;10.976;2022-09-12T12:57:17;4.82;;;2.45;;
48199;SDS011;33990;44.602;10.976;2022-09-12T12:59:52;4.85;;;2.00;;
48199;SDS011;33990;44.602;10.976;2022-09-12T13:02:26;4.40;;;2.60;;
48199;SDS011;33990;44.602;10.976;2022-09-12T13:04:58;2.90;;;2.10;;
48199;SDS011;33990;44.602;10.976;2022-09-12T13:07:32;2.95;;;2.15;;
48199;SDS011;33990;44.602;10.976;2022-09-12T13:10:05;8.40;;;2.28;;
48199;SDS011;33990;44.602;10.976;2022-09-12T13:12:35;3.05;;;2.17;;
48199;SDS011;33990;44.602;10.976;2022-09-12T13:17:57;4.20;;;2.20;;
48199;SDS011;33990;44.602;10.976;2022-09-12T13:20:29;3.53;;;2.33;;
48199;SDS011;33990;44.602;10.976;2022-09-12T13:22:59;3.08;;;2.00;;
48199;SDS011;33990;44.602;10.976;2022-09-12T13:25:34;2.80;;;2.08;;
48199;SDS011;33990;44.602;10.976;2022-09-12T13:28:04;3.50;;;2.10;;
48199;SDS011;33990;44.602;10.976;2022-09-12T13:30:33;3.22;;;2.40;;
48199;SDS011;33990;44.602;10.976;2022-09-12T13:33:09;6.55;;;2.25;;
48199;SDS011;33990;44.602;10.976;2022-09-12T13:35:48;4.70;;;2.08;;
48199;SDS011;33990;44.602;10.976;2022-09-12T13:44:08;3.72;;;2.20;;
48199;SDS011;33990;44.602;10.976;2022-09-12T13:46:37;3.38;;;1.98;;
48199;SDS011;33990;44.602;10.976;2022-09-12T13:49:07;3.33;;;1.95;;
48199;SDS011;33990;44.602;10.976;2022-09-12T13:51:46;5.15;;;2.40;;
48199;SDS011;33990;44.602;10.976;2022-09-12T13:54:25;5.63;;;2.40;;
48199;SDS011;33990;44.602;10.976;2022-09-12T13:56:53;3.97;;;2.45;;
48199;SDS011;33990;44.602;10.976;2022-09-12T13:59:20;3.30;;;1.95;;
48199;SDS011;33990;44.602;10.976;2022-09-12T14:01:48;5.00;;;2.55;;
48199;SDS011;33990;44.602;10.976;2022-09-12T14:04:20;5.32;;;2.08;;
48199;SDS011;33990;44.602;10.976;2022-09-12T14:07:12;2.50;;;1.90;;
48199;SDS011;33990;44.602;10.976;2022-09-12T14:09:52;3.55;;;1.92;;
48199;SDS011;33990;44.602;10.976;2022-09-12T14:12:23;10.60;;;2.50;;
48199;SDS011;33990;44.602;10.976;2022-09-12T14:14:55;4.15;;;2.58;;
48199;SDS011;33990;44.602;10.976;2022-09-12T14:17:27;3.85;;;2.38;;
48199;SDS011;33990;44.602;10.976;2022-09-12T14:20:07;4.65;;;2.25;;
48199;SDS011;33990;44.602;10.976;2022-09-12T14:22:40;3.42;;;2.20;;
48199;SDS011;33990;44.602;10.976;2022-09-12T14:25:17;2.63;;;2.13;;
48199;SDS011;33990;44.602;10.976;2022-09-12T14:27:49;3.42;;;2.13;;
48199;SDS011;33990;44.602;10.976;2022-09-12T14:30:21;6.13;;;2.13;;
48199;SDS011;33990;44.602;10.976;2022-09-12T14:33:02;3.05;;;1.80;;
48199;SDS011;33990;44.602;10.976;2022-09-12T14:35:41;4.28;;;2.28;;
48199;SDS011;33990;44.602;10.976;2022-09-12T14:40:43;5.10;;;2.17;;
48199;SDS011;33990;44.602;10.976;2022-09-12T14:43:19;2.40;;;1.80;;
48199;SDS011;33990;44.602;10.976;2022-09-12T14:45:55;3.40;;;1.75;;
48199;SDS011;33990;44.602;10.976;2022-09-12T14:48:29;3.75;;;1.92;;
48199;SDS011;33990;44.602;10.976;2022-09-12T14:51:00;6.13;;;1.80;;
48199;SDS011;33990;44.602;10.976;2022-09-12T14:53:30;2.95;;;2.33;;
48199;SDS011;33990;44.602;10.976;2022-09-12T14:58:35;3.40;;;1.90;;
48199;SDS011;33990;44.602;10.976;2022-09-12T15:06:28;4.55;;;2.50;;
48199;SDS011;33990;44.602;10.976;2022-09-12T15:09:07;2.80;;;1.90;;
48199;SDS011;33990;44.602;10.976;2022-09-12T15:11:38;2.50;;;1.80;;
48199;SDS011;33990;44.602;10.976;2022-09-12T15:14:11;2.90;;;2.00;;
48199;SDS011;33990;44.602;10.976;2022-09-12T15:16:39;1.98;;;1.55;;
48199;SDS011;33990;44.602;10.976;2022-09-12T15:19:07;10.48;;;2.13;;
48199;SDS011;33990;44.602;10.976;2022-09-12T15:21:34;7.35;;;2.05;;
48199;SDS011;33990;44.602;10.976;2022-09-12T15:24:01;3.17;;;2.10;;
48199;SDS011;33990;44.602;10.976;2022-09-12T15:26:29;5.60;;;1.73;;
48199;SDS011;33990;44.602;10.976;2022-09-12T15:28:57;3.30;;;1.52;;
48199;SDS011;33990;44.602;10.976;2022-09-12T15:33:55;6.22;;;2.10;;
48199;SDS011;33990;44.602;10.976;2022-09-12T15:36:24;3.08;;;1.90;;
48199;SDS011;33990;44.602;10.976;2022-09-12T15:38:51;3.40;;;1.90;;
48199;SDS011;33990;44.602;10.976;2022-09-12T15:41:27;2.90;;;1.80;;
48199;SDS011;33990;44.602;10.976;2022-09-12T15:43:58;2.58;;;1.75;;
48199;SDS011;33990;44.602;10.976;2022-09-12T15:46:25;2.25;;;1.50;;
48199;SDS011;33990;44.602;10.976;2022-09-12T15:48:53;2.58;;;2.00;;
48199;SDS011;33990;44.602;10.976;2022-09-12T15:51:20;4.68;;;1.73;;
48199;SDS011;33990;44.602;10.976;2022-09-12T15:53:48;2.10;;;1.77;;
48199;SDS011;33990;44.602;10.976;2022-09-12T15:56:17;2.80;;;2.00;;
48199;SDS011;33990;44.602;10.976;2022-09-12T15:58:47;2.33;;;1.80;;
48199;SDS011;33990;44.602;10.976;2022-09-12T16:01:26;4.18;;;1.70;;
48199;SDS011;33990;44.602;10.976;2022-09-12T16:03:54;2.05;;;1.75;;
48199;SDS011;33990;44.602;10.976;2022-09-12T16:06:21;3.83;;;1.60;;
48199;SDS011;33990;44.602;10.976;2022-09-12T16:08:49;3.38;;;1.60;;
48199;SDS011;33990;44.602;10.976;2022-09-12T16:11:21;3.60;;;1.88;;
48199;SDS011;33990;44.602;10.976;2022-09-12T16:13:53;3.17;;;1.60;;
48199;SDS011;33990;44.602;10.976;2022-09-12T16:16:22;3.25;;;1.67;;
48199;SDS011;33990;44.602;10.976;2022-09-12T16:18:50;3.17;;;2.08;;
48199;SDS011;33990;44.602;10.976;2022-09-12T16:21:17;4.40;;;1.98;;
48199;SDS011;33990;44.602;10.976;2022-09-12T16:23:45;2.78;;;1.70;;
48199;SDS011;33990;44.602;10.976;2022-09-12T16:26:13;2.15;;;1.58;;
48199;SDS011;33990;44.602;10.976;2022-09-12T16:28:41;2.25;;;1.70;;
48199;SDS011;33990;44.602;10.976;2022-09-12T16:31:09;2.65;;;1.77;;
48199;SDS011;33990;44.602;10.976;2022-09-12T16:33:39;4.82;;;2.17;;
48199;SDS011;33990;44.602;10.976;2022-09-12T16:36:11;3.25;;;1.60;;
48199;SDS011;33990;44.602;10.976;2022-09-12T16:38:41;5.55;;;2.10;;
48199;SDS011;33990;44.602;10.976;2022-09-12T16:41:12;7.85;;;3.72;;
48199;SDS011;33990;44.602;10.976;2022-09-12T16:43:41;4.60;;;2.50;;
48199;SDS011;33990;44.602;10.976;2022-09-12T16:46:10;11.38;;;5.47;;
48199;SDS011;33990;44.602;10.976;2022-09-12T16:48:43;6.95;;;4.57;;
48199;SDS011;33990;44.602;10.976;2022-09-12T16:51:19;7.95;;;5.22;;
48199;SDS011;33990;44.602;10.976;2022-09-12T16:53:49;7.20;;;4.63;;
48199;SDS011;33990;44.602;10.976;2022-09-12T16:56:16;13.98;;;5.97;;
48199;SDS011;33990;44.602;10.976;2022-09-12T16:58:44;11.98;;;5.53;;
48199;SDS011;33990;44.602;10.976;2022-09-12T17:01:13;13.27;;;6.80;;
48199;SDS011;33990;44.602;10.976;2022-09-12T17:03:42;12.18;;;5.43;;
48199;SDS011;33990;44.602;10.976;2022-09-12T17:06:16;7.88;;;4.60;;
48199;SDS011;33990;44.602;10.976;2022-09-12T17:08:45;7.30;;;4.93;;
48199;SDS011;33990;44.602;10.976;2022-09-12T17:11:15;9.40;;;5.25;;
48199;SDS011;33990;44.602;10.976;2022-09-12T17:13:51;11.23;;;6.13;;
48199;SDS011;33990;44.602;10.976;2022-09-12T17:16:37;8.63;;;4.53;;
48199;SDS011;33990;44.602;10.976;2022-09-12T17:19:06;7.93;;;4.55;;
48199;SDS011;33990;44.602;10.976;2022-09-12T17:21:34;8.55;;;5.00;;
48199;SDS011;33990;44.602;10.976;2022-09-12T17:24:02;6.95;;;4.57;;
48199;SDS011;33990;44.602;10.976;2022-09-12T17:26:30;8.27;;;4.45;;
48199;SDS011;33990;44.602;10.976;2022-09-12T17:28:57;7.85;;;4.22;;
48199;SDS011;33990;44.602;10.976;2022-09-12T17:31:24;6.88;;;3.92;;
48199;SDS011;33990;44.602;10.976;2022-09-12T17:33:56;6.57;;;3.78;;
48199;SDS011;33990;44.602;10.976;2022-09-12T17:36:24;4.57;;;3.00;;
48199;SDS011;33990;44.602;10.976;2022-09-12T17:38:53;10.05;;;3.55;;
48199;SDS011;33990;44.602;10.976;2022-09-12T17:41:21;9.27;;;3.65;;
48199;SDS011;33990;44.602;10.976;2022-09-12T17:43:51;5.90;;;3.35;;
48199;SDS011;33990;44.602;10.976;2022-09-12T17:46:22;7.80;;;3.10;;
48199;SDS011;33990;44.602;10.976;2022-09-12T17:48:52;4.10;;;2.42;;
48199;SDS011;33990;44.602;10.976;2022-09-12T17:51:21;6.85;;;2.67;;
48199;SDS011;33990;44.602;10.976;2022-09-12T17:53:54;4.95;;;2.50;;
48199;SDS011;33990;44.602;10.976;2022-09-12T17:56:26;3.47;;;2.20;;
48199;SDS011;33990;44.602;10.976;2022-09-12T17:58:56;7.82;;;2.58;;
48199;SDS011;33990;44.602;10.976;2022-09-12T18:01:24;5.03;;;2.40;;
48199;SDS011;33990;44.602;10.976;2022-09-12T18:04:11;3.97;;;2.33;;